createdAt,value
2022-08-27T00:00:55.264Z,3.00
2022-08-27T00:01:56.488Z,3.00
2022-08-27T00:02:55.250Z,3.30
2022-08-27T00:03:55.462Z,3.20
2022-08-27T00:04:55.290Z,2.90
2022-08-27T00:05:55.457Z,2.60
2022-08-27T00:06:55.321Z,2.90
2022-08-27T00:07:57.624Z,3.00
2022-08-27T00:08:55.250Z,3.20
2022-08-27T00:09:55.316Z,3.20
2022-08-27T00:10:55.243Z,3.20
2022-08-27T00:11:55.268Z,2.80
2022-08-27T00:12:55.115Z,2.90
2022-08-27T00:13:55.235Z,3.00
2022-08-27T00:14:55.247Z,3.00
2022-08-27T00:15:55.221Z,3.00
2022-08-27T00:16:55.526Z,2.80
2022-08-27T00:17:55.308Z,2.90
2022-08-27T00:18:55.051Z,2.90
2022-08-27T00:19:56.321Z,2.90
2022-08-27T00:20:55.169Z,3.10
2022-08-27T00:21:55.274Z,2.80
2022-08-27T00:22:55.128Z,2.80
2022-08-27T00:23:55.246Z,2.60
2022-08-27T00:24:55.097Z,2.80
2022-08-27T00:25:55.196Z,2.50
2022-08-27T00:26:55.173Z,2.70
2022-08-27T00:27:55.232Z,2.40
2022-08-27T00:28:55.086Z,2.30
2022-08-27T00:29:55.074Z,2.30
2022-08-27T00:30:55.009Z,2.60
2022-08-27T00:31:57.088Z,2.10
2022-08-27T00:32:54.838Z,2.60
2022-08-27T00:33:56.154Z,2.30
2022-08-27T00:34:54.876Z,2.70
2022-08-27T00:35:56.029Z,2.70
2022-08-27T00:36:55.001Z,2.40
2022-08-27T00:37:54.891Z,2.40
2022-08-27T00:38:54.919Z,2.60
2022-08-27T00:39:55.085Z,2.40
2022-08-27T00:40:54.834Z,2.30
2022-08-27T00:41:54.980Z,2.60
2022-08-27T00:42:54.746Z,2.30
2022-08-27T00:43:54.825Z,2.60
2022-08-27T00:44:54.971Z,2.30
2022-08-27T00:45:55.007Z,2.40
2022-08-27T00:46:54.769Z,2.70
2022-08-27T00:47:54.853Z,2.30
2022-08-27T00:48:54.665Z,2.40
2022-08-27T00:49:55.887Z,2.20
2022-08-27T00:50:54.791Z,2.50
2022-08-27T00:51:54.794Z,2.40
2022-08-27T00:52:54.711Z,2.20
2022-08-27T00:55:04.508Z,1.80
2022-08-27T00:56:04.488Z,1.90
2022-08-27T00:57:04.510Z,2.20
2022-08-27T00:58:04.984Z,2.20
2022-08-27T00:59:04.391Z,2.20
2022-08-27T01:00:04.321Z,2.30
2022-08-27T01:01:04.391Z,2.30
2022-08-27T01:02:04.379Z,2.40
2022-08-27T01:03:05.628Z,2.20
2022-08-27T01:04:04.359Z,2.30
2022-08-27T01:05:05.268Z,2.20
2022-08-27T01:06:04.360Z,2.20
2022-08-27T01:07:04.339Z,2.30
2022-08-27T01:08:04.234Z,2.10
2022-08-27T01:09:04.634Z,2.40
2022-08-27T01:10:04.526Z,2.20
2022-08-27T01:11:05.262Z,2.50
2022-08-27T01:12:04.259Z,2.00
2022-08-27T01:13:04.175Z,2.30
2022-08-27T01:14:04.324Z,2.10
2022-08-27T01:15:04.395Z,2.20
2022-08-27T01:16:04.138Z,2.40
2022-08-27T01:17:04.331Z,2.10
2022-08-27T01:18:04.229Z,2.00
2022-08-27T01:19:25.393Z,2.20
2022-08-27T01:20:04.220Z,2.30
2022-08-27T01:21:05.403Z,1.80
2022-08-27T01:22:03.987Z,2.30
2022-08-27T01:23:05.096Z,2.40
2022-08-27T01:24:04.065Z,2.50
2022-08-27T01:25:06.046Z,2.60
2022-08-27T01:26:03.960Z,2.40
2022-08-27T01:27:03.990Z,2.50
2022-08-27T01:28:04.023Z,2.80
2022-08-27T01:29:05.136Z,2.30
2022-08-27T01:30:03.945Z,2.60
2022-08-27T01:31:06.365Z,2.40
2022-08-27T01:32:04.064Z,2.50
2022-08-27T01:33:04.112Z,2.30
2022-08-27T01:34:03.981Z,2.20
2022-08-27T01:35:04.106Z,2.10
2022-08-27T01:36:03.967Z,2.10
2022-08-27T01:37:03.945Z,2.20
2022-08-27T01:38:03.972Z,2.20
2022-08-27T01:39:05.444Z,2.20
2022-08-27T01:40:04.944Z,2.00
2022-08-27T01:41:03.945Z,2.50
2022-08-27T01:42:03.885Z,2.30
2022-08-27T01:43:03.802Z,2.10
2022-08-27T01:44:03.920Z,2.40
2022-08-27T01:45:04.763Z,3.40
2022-08-27T01:46:03.714Z,2.10
2022-08-27T01:47:03.690Z,2.10
2022-08-27T01:48:03.951Z,2.20
2022-08-27T01:49:03.794Z,2.30
2022-08-27T01:50:03.923Z,2.30
2022-08-27T01:51:03.883Z,2.20
2022-08-27T01:52:04.681Z,2.40
2022-08-27T01:53:03.845Z,2.60
2022-08-27T01:54:03.775Z,2.70
2022-08-27T01:55:03.650Z,2.50
2022-08-27T01:56:04.881Z,2.30
2022-08-27T01:57:03.693Z,2.10
2022-08-27T01:58:03.709Z,2.30
2022-08-27T01:59:03.523Z,2.20
2022-08-27T02:00:03.575Z,2.30
2022-08-27T02:01:03.723Z,2.10
2022-08-27T02:02:03.666Z,2.20
2022-08-27T02:03:03.666Z,2.20
2022-08-27T02:04:03.615Z,2.30
2022-08-27T02:05:03.389Z,2.10
2022-08-27T02:06:03.671Z,2.40
2022-08-27T02:07:03.376Z,2.10
2022-08-27T02:08:03.583Z,2.20
2022-08-27T02:09:03.374Z,2.20
2022-08-27T02:10:05.618Z,2.20
2022-08-27T02:11:03.337Z,2.30
2022-08-27T02:12:03.629Z,2.00
2022-08-27T02:13:03.440Z,2.20
2022-08-27T02:14:03.543Z,2.20
2022-08-27T02:15:04.981Z,2.30
2022-08-27T02:16:03.391Z,2.20
2022-08-27T02:17:03.363Z,2.00
2022-08-27T02:18:03.466Z,2.20
2022-08-27T02:19:03.328Z,2.50
2022-08-27T02:20:04.473Z,2.00
2022-08-27T02:21:03.467Z,2.40
2022-08-27T02:22:05.707Z,2.30
2022-08-27T02:23:03.216Z,2.10
2022-08-27T02:24:03.362Z,2.30
2022-08-27T02:25:03.253Z,2.20
2022-08-27T02:26:04.312Z,2.30
2022-08-27T02:27:03.200Z,2.30
2022-08-27T02:28:03.503Z,2.50
2022-08-27T02:29:03.258Z,2.30
2022-08-27T02:30:03.336Z,2.20
2022-08-27T02:31:03.203Z,2.20
2022-08-27T02:32:03.409Z,2.60
2022-08-27T02:33:03.047Z,2.40
2022-08-27T02:34:03.153Z,2.00
2022-08-27T02:35:03.132Z,2.40
2022-08-27T02:36:03.308Z,2.10
2022-08-27T02:37:03.160Z,2.30
2022-08-27T02:38:03.400Z,2.00
2022-08-27T02:39:03.117Z,2.40
2022-08-27T02:40:03.112Z,2.20
2022-08-27T02:41:03.194Z,2.30
2022-08-27T02:42:03.364Z,2.40
2022-08-27T02:43:03.139Z,2.40
2022-08-27T02:44:03.044Z,2.40
2022-08-27T02:45:03.914Z,2.20
2022-08-27T02:46:03.055Z,2.20
2022-08-27T02:47:02.948Z,2.20
2022-08-27T02:48:03.276Z,1.90
2022-08-27T02:49:02.883Z,2.40
2022-08-27T02:50:02.992Z,2.50
2022-08-27T02:51:03.161Z,2.30
2022-08-27T02:52:03.094Z,2.40
2022-08-27T02:53:02.850Z,2.20
2022-08-27T02:54:03.942Z,2.30
2022-08-27T02:55:02.780Z,2.20
2022-08-27T02:56:02.843Z,2.30
2022-08-27T02:57:02.829Z,2.30
2022-08-27T02:58:02.873Z,2.20
2022-08-27T02:59:02.780Z,2.30
2022-08-27T03:00:02.721Z,2.80
2022-08-27T03:01:02.755Z,2.20
2022-08-27T03:02:03.169Z,2.20
2022-08-27T03:03:02.797Z,2.40
2022-08-27T03:04:02.725Z,2.40
2022-08-27T03:05:02.733Z,2.40
2022-08-27T03:06:02.852Z,2.40
2022-08-27T03:07:02.695Z,2.40
2022-08-27T03:08:02.729Z,2.50
2022-08-27T03:09:02.653Z,2.40
2022-08-27T03:10:02.881Z,2.40
2022-08-27T03:11:02.611Z,2.40
2022-08-27T03:12:02.798Z,2.30
2022-08-27T03:13:02.652Z,2.50
2022-08-27T03:14:02.718Z,2.40
2022-08-27T03:15:02.626Z,2.30
2022-08-27T03:16:02.793Z,2.30
2022-08-27T03:17:02.568Z,2.40
2022-08-27T03:18:02.548Z,2.40
2022-08-27T03:19:02.660Z,2.30
2022-08-27T03:20:03.529Z,2.50
2022-08-27T03:21:02.401Z,2.40
2022-08-27T03:22:02.547Z,2.30
2022-08-27T03:23:02.626Z,2.40
2022-08-27T03:24:09.516Z,2.50
2022-08-27T03:25:03.530Z,2.40
2022-08-27T03:26:02.552Z,2.20
2022-08-27T03:27:02.295Z,2.60
2022-08-27T03:28:02.501Z,2.30
2022-08-27T03:29:02.343Z,2.20
2022-08-27T03:30:07.876Z,2.20
2022-08-27T03:31:02.576Z,2.50
2022-08-27T03:32:04.603Z,2.50
2022-08-27T03:33:02.233Z,2.20
2022-08-27T03:34:02.373Z,2.20
2022-08-27T03:35:02.291Z,2.30
2022-08-27T03:36:02.302Z,2.20
2022-08-27T03:37:02.266Z,2.40
2022-08-27T03:38:02.499Z,2.30
2022-08-27T03:39:02.283Z,2.40
2022-08-27T03:40:02.409Z,2.40
2022-08-27T03:41:02.190Z,2.30
2022-08-27T03:42:02.246Z,2.40
2022-08-27T03:43:02.180Z,2.30
2022-08-27T03:44:02.095Z,2.20
2022-08-27T03:45:02.201Z,2.30
2022-08-27T03:46:02.598Z,2.20
2022-08-27T03:47:02.209Z,2.40
2022-08-27T03:48:02.321Z,2.10
2022-08-27T03:49:02.174Z,2.40
2022-08-27T03:50:03.238Z,1.90
2022-08-27T03:51:02.051Z,2.40
2022-08-27T03:52:02.130Z,2.10
2022-08-27T03:53:02.247Z,2.50
2022-08-27T03:54:02.112Z,2.20
2022-08-27T03:55:02.107Z,2.40
2022-08-27T03:56:02.071Z,2.20
2022-08-27T03:57:02.083Z,2.10
2022-08-27T03:58:03.153Z,2.30
2022-08-27T03:59:02.028Z,2.10
2022-08-27T04:00:02.106Z,2.30
2022-08-27T04:01:01.965Z,2.20
2022-08-27T04:02:02.155Z,2.40
2022-08-27T04:03:02.072Z,2.30
2022-08-27T04:04:01.985Z,2.20
2022-08-27T04:05:01.925Z,2.00
2022-08-27T04:06:02.044Z,2.30
2022-08-27T04:07:01.998Z,2.20
2022-08-27T04:08:02.979Z,2.20
2022-08-27T04:09:01.830Z,2.00
2022-08-27T04:10:02.989Z,2.40
2022-08-27T04:11:01.786Z,2.40
2022-08-27T04:12:01.734Z,2.30
2022-08-27T04:13:01.882Z,2.40
2022-08-27T04:14:02.072Z,2.60
2022-08-27T04:15:01.861Z,2.20
2022-08-27T04:16:02.884Z,2.20
2022-08-27T04:17:01.855Z,2.20
2022-08-27T04:18:02.867Z,2.10
2022-08-27T04:19:01.590Z,2.20
2022-08-27T04:20:18.715Z,2.10
2022-08-27T04:21:02.875Z,2.40
2022-08-27T04:22:01.927Z,2.20
2022-08-27T04:23:01.761Z,2.00
2022-08-27T04:24:01.740Z,2.10
2022-08-27T04:25:01.665Z,2.40
2022-08-27T04:26:01.607Z,2.30
2022-08-27T04:27:01.693Z,2.40
2022-08-27T04:28:01.476Z,2.30
2022-08-27T04:29:01.795Z,2.00
2022-08-27T04:30:01.665Z,2.40
2022-08-27T04:31:01.870Z,2.70
2022-08-27T04:32:01.438Z,2.50
2022-08-27T04:33:01.585Z,2.50
2022-08-27T04:34:01.540Z,2.30
2022-08-27T04:35:01.436Z,2.60
2022-08-27T04:36:01.608Z,2.60
2022-08-27T04:37:01.696Z,2.30
2022-08-27T04:38:01.676Z,2.60
2022-08-27T04:39:02.537Z,3.70
2022-08-27T04:40:01.560Z,2.30
2022-08-27T04:41:03.490Z,2.30
2022-08-27T04:42:01.399Z,2.70
2022-08-27T04:43:01.654Z,2.40
2022-08-27T04:44:01.395Z,2.50
2022-08-27T04:45:01.527Z,2.50
2022-08-27T04:46:01.519Z,2.50
2022-08-27T04:47:01.499Z,2.50
2022-08-27T04:48:01.271Z,2.50
2022-08-27T04:49:02.483Z,2.40
2022-08-27T04:50:05.689Z,2.50
2022-08-27T04:51:01.241Z,2.20
2022-08-27T04:52:02.681Z,2.30
2022-08-27T04:53:01.359Z,2.10
2022-08-27T04:54:01.338Z,2.40
2022-08-27T04:55:01.234Z,2.70
2022-08-27T04:56:01.394Z,2.30
2022-08-27T04:57:01.240Z,2.30
2022-08-27T04:58:01.234Z,2.20
2022-08-27T04:59:01.047Z,2.40
2022-08-27T05:00:03.270Z,2.70
2022-08-27T05:01:01.108Z,2.30
2022-08-27T05:02:01.197Z,2.40
2022-08-27T05:03:01.059Z,2.40
2022-08-27T05:04:02.098Z,2.50
2022-08-27T05:05:01.129Z,2.50
2022-08-27T05:06:02.052Z,2.30
2022-08-27T05:07:01.025Z,2.70
2022-08-27T05:08:01.212Z,2.30
2022-08-27T05:09:01.090Z,2.30
2022-08-27T05:10:01.156Z,2.60
2022-08-27T05:11:00.925Z,2.30
2022-08-27T05:12:02.167Z,2.50
2022-08-27T05:13:01.052Z,2.70
2022-08-27T05:14:01.158Z,2.60
2022-08-27T05:15:00.857Z,2.60
2022-08-27T05:16:00.876Z,2.40
2022-08-27T05:17:00.794Z,2.30
2022-08-27T05:18:01.035Z,2.20
2022-08-27T05:19:00.987Z,2.60
2022-08-27T05:20:00.922Z,2.50
2022-08-27T05:21:00.757Z,2.60
2022-08-27T05:22:00.890Z,2.30
2022-08-27T05:23:00.871Z,2.40
2022-08-27T05:24:00.811Z,2.70
2022-08-27T05:25:00.744Z,2.10
2022-08-27T05:26:02.233Z,2.20
2022-08-27T05:27:00.785Z,2.20
2022-08-27T05:28:01.749Z,2.70
2022-08-27T05:29:00.794Z,2.30
2022-08-27T05:30:00.857Z,2.60
2022-08-27T05:31:00.894Z,2.50
2022-08-27T05:32:05.125Z,2.50
2022-08-27T05:33:00.807Z,2.60
2022-08-27T05:34:00.711Z,2.50
2022-08-27T05:35:00.723Z,2.80
2022-08-27T05:36:00.848Z,2.50
2022-08-27T05:37:00.742Z,2.80
2022-08-27T05:38:01.852Z,2.80
2022-08-27T05:39:00.692Z,2.80
2022-08-27T05:40:00.840Z,2.70
2022-08-27T05:41:00.433Z,3.00
2022-08-27T05:42:01.657Z,2.50
2022-08-27T05:43:06.756Z,2.90
2022-08-27T05:44:39.637Z,2.60
2022-08-27T05:45:14.793Z,2.60
2022-08-27T05:46:06.865Z,2.90
2022-08-27T05:47:27.078Z,2.70
2022-08-27T05:48:05.614Z,2.90
2022-08-27T05:49:07.098Z,3.10
2022-08-27T05:50:39.616Z,2.80
2022-08-27T05:51:11.623Z,3.00
2022-08-27T05:52:32.464Z,2.80
2022-08-27T05:53:12.810Z,2.90
2022-08-27T05:55:42.370Z,2.80
2022-08-27T05:56:45.655Z,2.90
2022-08-27T05:57:55.129Z,2.80
2022-08-27T05:58:54.418Z,2.80
2022-08-27T06:00:16.160Z,3.00
2022-08-27T06:00:48.860Z,2.70
2022-08-27T06:01:58.060Z,2.90
2022-08-27T06:02:53.597Z,2.80
2022-08-27T06:03:44.632Z,2.60
2022-08-27T06:04:45.826Z,2.60
2022-08-27T06:05:54.379Z,2.90
2022-08-27T06:06:49.343Z,2.80
2022-08-27T06:07:44.344Z,3.00
2022-08-27T06:08:56.430Z,2.90
2022-08-27T06:09:47.609Z,3.00
2022-08-27T06:10:48.153Z,2.60
2022-08-27T06:11:43.709Z,2.70
2022-08-27T06:12:49.822Z,2.60
2022-08-27T06:13:46.177Z,2.70
2022-08-27T06:14:48.536Z,2.60
2022-08-27T06:15:43.595Z,2.80
2022-08-27T06:16:43.509Z,2.70
2022-08-27T06:17:42.994Z,2.90
2022-08-27T06:19:04.977Z,2.60
2022-08-27T06:19:46.277Z,3.00
2022-08-27T06:20:44.053Z,2.90
2022-08-27T06:22:00.345Z,3.30
2022-08-27T06:22:46.750Z,3.00
2022-08-27T06:23:50.920Z,3.20
2022-08-27T06:24:44.969Z,3.20
2022-08-27T06:25:42.237Z,3.40
2022-08-27T06:26:42.083Z,3.60
2022-08-27T06:27:46.165Z,4.10
2022-08-27T06:28:44.483Z,5.10
2022-08-27T06:29:52.504Z,5.10
2022-08-27T06:30:49.560Z,4.60
2022-08-27T06:31:44.593Z,3.70
2022-08-27T06:32:45.034Z,3.30
2022-08-27T06:33:46.202Z,3.40
2022-08-27T06:34:44.485Z,2.90
2022-08-27T06:35:44.136Z,3.10
2022-08-27T06:36:44.927Z,3.00
2022-08-27T06:37:42.847Z,3.10
2022-08-27T06:38:48.643Z,3.10
2022-08-27T06:39:45.977Z,3.20
2022-08-27T06:40:45.363Z,3.00
2022-08-27T06:41:50.572Z,3.30
2022-08-27T06:42:41.877Z,3.00
2022-08-27T06:43:41.738Z,3.00
2022-08-27T06:44:47.407Z,3.60
2022-08-27T06:45:49.351Z,3.60
2022-08-27T06:47:09.244Z,3.20
2022-08-27T06:47:44.683Z,2.90
2022-08-27T06:48:48.119Z,3.20
2022-08-27T06:50:16.446Z,3.20
2022-08-27T06:50:44.959Z,3.50
2022-08-27T06:51:49.962Z,4.00
2022-08-27T06:52:49.127Z,3.40
2022-08-27T06:53:43.812Z,3.80
2022-08-27T06:54:46.404Z,3.30
2022-08-27T06:55:41.765Z,3.50
2022-08-27T06:56:41.700Z,3.80
2022-08-27T06:57:41.467Z,3.50
2022-08-27T06:58:42.791Z,5.30
2022-08-27T06:59:41.459Z,3.80
2022-08-27T07:00:43.302Z,3.50
2022-08-27T07:01:41.666Z,3.50
2022-08-27T07:02:43.711Z,3.00
2022-08-27T07:03:41.460Z,2.80
2022-08-27T07:04:41.487Z,3.40
2022-08-27T07:05:41.452Z,3.70
2022-08-27T07:06:41.553Z,2.70
2022-08-27T07:07:46.784Z,3.40
2022-08-27T07:08:42.491Z,3.10
2022-08-27T07:09:41.563Z,2.90
2022-08-27T07:10:41.527Z,2.80
2022-08-27T07:11:41.525Z,2.90
2022-08-27T07:12:41.486Z,3.10
2022-08-27T07:13:42.554Z,3.20
2022-08-27T07:14:41.358Z,3.90
2022-08-27T07:16:02.596Z,3.10
2022-08-27T07:16:41.484Z,2.90
2022-08-27T07:17:41.891Z,3.00
2022-08-27T07:18:41.443Z,2.90
2022-08-27T07:19:41.535Z,3.00
2022-08-27T07:20:42.527Z,2.90
2022-08-27T07:21:41.181Z,2.90
2022-08-27T07:22:41.498Z,2.60
2022-08-27T07:23:41.290Z,2.80
2022-08-27T07:24:41.484Z,2.50
2022-08-27T07:25:41.182Z,2.60
2022-08-27T07:26:43.409Z,2.70
2022-08-27T07:27:41.049Z,2.80
2022-08-27T07:28:41.189Z,2.50
2022-08-27T07:29:41.129Z,2.60
2022-08-27T07:30:41.434Z,2.50
2022-08-27T07:31:41.278Z,2.60
2022-08-27T07:32:41.185Z,2.20
2022-08-27T07:33:45.391Z,2.40
2022-08-27T07:34:42.135Z,2.30
2022-08-27T07:35:41.117Z,2.10
2022-08-27T07:36:40.973Z,1.90
2022-08-27T07:37:41.340Z,1.80
2022-08-27T07:38:41.063Z,2.10
2022-08-27T07:39:41.178Z,2.00
2022-08-27T07:40:41.345Z,1.80
2022-08-27T07:41:41.105Z,1.70
2022-08-27T07:42:40.989Z,1.90
2022-08-27T07:43:41.142Z,1.70
2022-08-27T07:44:40.980Z,1.80
2022-08-27T07:45:42.020Z,2.20
2022-08-27T07:46:43.493Z,2.10
2022-08-27T07:47:42.008Z,2.00
2022-08-27T07:48:41.064Z,2.00
2022-08-27T07:49:40.869Z,2.00
2022-08-27T07:50:40.900Z,2.10
2022-08-27T07:51:40.917Z,2.10
2022-08-27T07:52:40.995Z,2.10
2022-08-27T07:53:40.959Z,1.60
2022-08-27T07:54:40.865Z,1.80
2022-08-27T07:55:40.774Z,2.30
2022-08-27T07:56:42.828Z,2.40
2022-08-27T07:57:41.960Z,2.10
2022-08-27T07:58:40.895Z,1.90
2022-08-27T07:59:40.825Z,1.80
2022-08-27T08:00:40.784Z,1.80
2022-08-27T08:01:40.700Z,1.60
2022-08-27T08:02:41.768Z,1.80
2022-08-27T08:03:40.916Z,1.70
2022-08-27T08:04:40.799Z,1.80
2022-08-27T08:05:40.705Z,2.00
2022-08-27T08:06:41.875Z,1.90
2022-08-27T08:07:40.748Z,2.00
2022-08-27T08:08:41.734Z,2.20
2022-08-27T08:09:40.621Z,1.70
2022-08-27T08:10:40.716Z,2.00
2022-08-27T08:11:40.602Z,2.20
2022-08-27T08:12:41.657Z,1.80
2022-08-27T08:13:40.610Z,2.10
2022-08-27T08:14:40.601Z,1.70
2022-08-27T08:15:40.695Z,1.70
2022-08-27T08:16:41.679Z,2.10
2022-08-27T08:17:40.623Z,1.60
2022-08-27T08:18:42.720Z,1.60
2022-08-27T08:19:40.608Z,1.70
2022-08-27T08:20:57.056Z,1.80
2022-08-27T08:21:41.537Z,1.80
2022-08-27T08:22:41.462Z,2.10
2022-08-27T08:23:40.339Z,2.00
2022-08-27T08:24:41.516Z,2.00
2022-08-27T08:25:40.516Z,2.20
2022-08-27T08:26:40.506Z,2.30
2022-08-27T08:27:40.356Z,2.20
2022-08-27T08:28:40.308Z,2.10
2022-08-27T08:29:40.263Z,2.20
2022-08-27T08:30:40.562Z,2.30
2022-08-27T08:31:40.364Z,2.10
2022-08-27T08:32:40.390Z,2.50
2022-08-27T08:33:40.439Z,2.10
2022-08-27T08:34:41.676Z,2.40
2022-08-27T08:35:40.589Z,2.60
2022-08-27T08:36:40.367Z,2.50
2022-08-27T08:37:40.263Z,2.30
2022-08-27T08:38:40.326Z,2.50
2022-08-27T08:39:40.354Z,2.60
2022-08-27T08:40:40.224Z,2.50
2022-08-27T08:41:40.226Z,2.20
2022-08-27T08:42:40.209Z,2.50
2022-08-27T08:43:40.200Z,2.00
2022-08-27T08:44:40.323Z,2.00
2022-08-27T08:45:40.241Z,1.80
2022-08-27T08:46:40.259Z,1.70
2022-08-27T08:47:40.145Z,1.70
2022-08-27T08:48:40.374Z,2.40
2022-08-27T08:49:40.224Z,2.70
2022-08-27T08:50:40.277Z,2.30
2022-08-27T08:51:40.102Z,2.30
2022-08-27T08:52:39.976Z,1.90
2022-08-27T08:53:40.090Z,1.70
2022-08-27T08:54:40.165Z,1.90
2022-08-27T08:55:40.032Z,2.10
2022-08-27T08:56:40.146Z,2.10
2022-08-27T08:57:39.998Z,1.80
2022-08-27T08:58:40.165Z,2.00
2022-08-27T08:59:39.835Z,1.90
2022-08-27T09:00:39.907Z,2.00
2022-08-27T09:01:40.031Z,2.40
2022-08-27T09:02:39.934Z,2.40
2022-08-27T09:03:40.013Z,2.50
2022-08-27T09:04:39.939Z,2.40
2022-08-27T09:05:39.821Z,1.90
2022-08-27T09:06:41.954Z,2.00
2022-08-27T09:07:39.758Z,2.20
2022-08-27T09:08:42.087Z,1.70
2022-08-27T09:09:40.033Z,2.00
2022-08-27T09:10:39.946Z,2.30
2022-08-27T09:11:39.758Z,2.00
2022-08-27T09:12:39.749Z,2.10
2022-08-27T09:13:39.766Z,1.80
2022-08-27T09:14:41.003Z,2.20
2022-08-27T09:15:39.839Z,2.00
2022-08-27T09:16:39.934Z,2.60
2022-08-27T09:17:39.743Z,2.30
2022-08-27T09:18:40.905Z,2.50
2022-08-27T09:19:39.760Z,1.90
2022-08-27T09:20:39.953Z,1.70
2022-08-27T09:21:39.682Z,1.80
2022-08-27T09:22:39.582Z,1.90
2022-08-27T09:23:39.766Z,2.00
2022-08-27T09:24:39.618Z,1.80
2022-08-27T09:25:39.765Z,2.30
2022-08-27T09:26:39.697Z,2.30
2022-08-27T09:27:39.722Z,2.50
2022-08-27T09:28:39.617Z,2.40
2022-08-27T09:29:39.654Z,2.40
2022-08-27T09:31:00.842Z,2.40
2022-08-27T09:31:39.639Z,2.70
2022-08-27T09:32:39.615Z,2.60
2022-08-27T09:33:44.398Z,2.50
2022-08-27T09:34:40.456Z,2.70
2022-08-27T09:35:39.524Z,2.60
2022-08-27T09:36:39.443Z,2.50
2022-08-27T09:37:40.448Z,2.60
2022-08-27T09:38:39.482Z,2.50
2022-08-27T09:39:39.721Z,2.50
2022-08-27T09:40:39.434Z,2.40
2022-08-27T09:41:39.429Z,2.50
2022-08-27T09:42:39.694Z,2.40
2022-08-27T09:43:39.806Z,2.50
2022-08-27T09:44:39.353Z,2.50
2022-08-27T09:45:39.491Z,2.50
2022-08-27T09:46:39.491Z,2.30
2022-08-27T09:47:39.528Z,2.30
2022-08-27T09:48:39.484Z,2.00
2022-08-27T09:49:39.505Z,2.30
2022-08-27T09:50:43.436Z,1.90
2022-08-27T09:51:39.496Z,1.90
2022-08-27T09:52:40.372Z,1.70
2022-08-27T09:53:39.260Z,2.30
2022-08-27T09:54:39.312Z,2.20
2022-08-27T09:55:39.279Z,1.80
2022-08-27T09:56:39.224Z,2.30
2022-08-27T09:57:39.260Z,2.30
2022-08-27T09:58:40.197Z,2.40
2022-08-27T09:59:39.217Z,2.30
2022-08-27T10:01:00.259Z,2.20
2022-08-27T10:01:39.423Z,2.50
2022-08-27T10:02:40.131Z,2.40
2022-08-27T10:03:39.528Z,2.40
2022-08-27T10:04:50.638Z,2.00
2022-08-27T10:05:40.183Z,1.90
2022-08-27T10:06:39.255Z,2.20
2022-08-27T10:07:39.107Z,1.90
2022-08-27T10:08:39.197Z,2.30
2022-08-27T10:09:39.126Z,1.80
2022-08-27T10:10:40.736Z,1.80
2022-08-27T10:11:39.035Z,1.80
2022-08-27T10:12:40.106Z,1.80
2022-08-27T10:13:39.068Z,2.50
2022-08-27T10:14:39.057Z,1.90
2022-08-27T10:15:44.024Z,1.80
2022-08-27T10:16:39.992Z,1.90
2022-08-27T10:17:39.015Z,1.70
2022-08-27T10:18:38.973Z,2.20
2022-08-27T10:19:38.951Z,1.80
2022-08-27T10:20:38.944Z,1.80
2022-08-27T10:21:39.071Z,2.20
2022-08-27T10:22:38.864Z,2.50
2022-08-27T10:23:38.902Z,2.30
2022-08-27T10:24:38.930Z,2.50
2022-08-27T10:25:39.872Z,2.20
2022-08-27T10:26:38.971Z,2.40
2022-08-27T10:27:39.957Z,2.00
2022-08-27T10:28:38.885Z,2.30
2022-08-27T10:29:38.768Z,2.40
2022-08-27T10:30:38.815Z,2.00
2022-08-27T10:31:39.002Z,2.00
2022-08-27T10:32:38.791Z,2.20
2022-08-27T10:33:38.823Z,1.80
2022-08-27T10:34:38.717Z,2.20
2022-08-27T10:35:40.638Z,2.20
2022-08-27T10:36:39.695Z,2.20
2022-08-27T10:37:40.489Z,2.20
2022-08-27T10:38:43.860Z,1.90
2022-08-27T10:39:39.690Z,1.70
2022-08-27T10:40:38.827Z,1.80
2022-08-27T10:41:38.607Z,1.70
2022-08-27T10:42:38.704Z,2.00
2022-08-27T10:43:38.604Z,2.30
2022-08-27T10:44:38.579Z,1.90
2022-08-27T10:45:38.830Z,2.40
2022-08-27T10:46:38.601Z,2.40
2022-08-27T10:47:39.471Z,2.20
2022-08-27T10:48:38.586Z,2.40
2022-08-27T10:49:38.611Z,1.70
2022-08-27T10:50:38.598Z,1.80
2022-08-27T10:51:38.474Z,1.70
2022-08-27T10:52:39.595Z,2.20
2022-08-27T10:53:38.411Z,2.20
2022-08-27T10:54:38.579Z,1.90
2022-08-27T10:55:38.480Z,2.10
2022-08-27T10:56:39.505Z,2.00
2022-08-27T10:57:54.307Z,2.50
2022-08-27T10:58:39.482Z,2.20
2022-08-27T10:59:38.348Z,2.00
2022-08-27T11:00:38.424Z,2.20
2022-08-27T11:01:38.433Z,2.20
2022-08-27T11:02:38.491Z,1.90
2022-08-27T11:03:38.348Z,2.10
2022-08-27T11:04:38.494Z,2.20
2022-08-27T11:05:38.305Z,2.20
2022-08-27T11:06:38.537Z,1.90
2022-08-27T11:07:38.381Z,1.80
2022-08-27T11:08:38.401Z,1.70
2022-08-27T11:09:38.221Z,1.90
2022-08-27T11:10:38.326Z,2.10
2022-08-27T11:12:39.245Z,1.80
2022-08-27T11:13:38.225Z,1.80
2022-08-27T11:14:38.117Z,1.80
2022-08-27T11:15:38.347Z,2.00
2022-08-27T11:16:41.233Z,2.00
2022-08-27T11:17:39.133Z,1.90
2022-08-27T11:18:38.163Z,1.70
2022-08-27T11:19:38.221Z,1.90
2022-08-27T11:20:59.102Z,1.70
2022-08-27T11:21:38.162Z,1.60
2022-08-27T11:22:40.088Z,2.00
2022-08-27T11:23:38.083Z,1.70
2022-08-27T11:24:38.325Z,1.70
2022-08-27T11:25:38.046Z,1.70
2022-08-27T11:26:38.935Z,2.00
2022-08-27T11:27:38.178Z,1.90
2022-08-27T11:28:37.938Z,1.60
2022-08-27T11:29:37.960Z,1.90
2022-08-27T11:30:40.522Z,1.70
2022-08-27T11:31:38.131Z,1.70
2022-08-27T11:32:38.074Z,1.60
2022-08-27T11:33:39.248Z,1.60
2022-08-27T11:34:37.975Z,1.70
2022-08-27T11:35:38.011Z,1.70
2022-08-27T11:36:38.078Z,1.80
2022-08-27T11:37:37.809Z,1.50
2022-08-27T11:38:37.995Z,1.80
2022-08-27T11:39:37.808Z,1.50
2022-08-27T11:40:37.915Z,1.60
2022-08-27T11:41:45.012Z,1.70
2022-08-27T11:42:38.829Z,2.10
2022-08-27T11:43:39.898Z,1.80
2022-08-27T11:44:37.889Z,1.80
2022-08-27T11:45:37.781Z,1.80
2022-08-27T11:46:37.786Z,1.90
2022-08-27T11:47:38.977Z,1.70
2022-08-27T11:48:37.808Z,1.80
2022-08-27T11:49:37.856Z,1.70
2022-08-27T11:50:37.848Z,1.80
2022-08-27T11:51:37.828Z,1.60
2022-08-27T11:52:37.713Z,1.60
2022-08-27T11:53:52.331Z,1.60
2022-08-27T11:54:38.626Z,1.50
2022-08-27T11:55:37.826Z,1.60
2022-08-27T11:56:37.700Z,1.70
2022-08-27T11:57:37.660Z,1.80
2022-08-27T11:58:53.250Z,1.80
2022-08-27T11:59:38.611Z,1.70
2022-08-27T12:00:37.507Z,1.70
2022-08-27T12:01:38.634Z,1.90
2022-08-27T12:02:37.482Z,2.20
2022-08-27T12:03:37.609Z,1.70
2022-08-27T12:04:37.722Z,2.00
2022-08-27T12:05:37.534Z,1.50
2022-08-27T12:06:37.420Z,1.60
2022-08-27T12:07:37.647Z,2.20
2022-08-27T12:08:37.471Z,2.20
2022-08-27T12:09:37.496Z,1.80
2022-08-27T12:10:37.385Z,2.20
2022-08-27T12:11:37.660Z,2.10
2022-08-27T12:12:37.317Z,1.90
2022-08-27T12:13:37.476Z,1.70
2022-08-27T12:14:37.245Z,1.90
2022-08-27T12:15:38.344Z,1.80
2022-08-27T12:16:37.278Z,1.70
2022-08-27T12:17:37.358Z,1.60
2022-08-27T12:18:37.187Z,1.70
2022-08-27T12:19:59.288Z,1.50
2022-08-27T12:20:37.206Z,1.80
2022-08-27T12:21:37.428Z,1.50
2022-08-27T12:22:39.592Z,1.60
2022-08-27T12:23:37.152Z,1.60
2022-08-27T12:24:37.237Z,1.70
2022-08-27T12:25:37.196Z,1.60
2022-08-27T12:26:37.088Z,1.60
2022-08-27T12:27:37.230Z,1.60
2022-08-27T12:28:37.079Z,2.00
2022-08-27T12:29:37.159Z,2.00
2022-08-27T12:30:37.046Z,1.60
2022-08-27T12:31:37.258Z,1.70
2022-08-27T12:32:37.039Z,1.50
2022-08-27T12:33:37.029Z,1.40
2022-08-27T12:34:37.091Z,1.40
2022-08-27T12:35:37.064Z,1.60
2022-08-27T12:36:36.968Z,1.70
2022-08-27T12:37:59.031Z,1.50
2022-08-27T12:38:36.968Z,1.90
2022-08-27T12:39:38.133Z,2.00
2022-08-27T12:40:37.061Z,2.30
2022-08-27T12:41:43.624Z,2.20
2022-08-27T12:42:37.946Z,2.40
2022-08-27T12:43:36.974Z,2.40
2022-08-27T12:44:36.865Z,2.30
2022-08-27T12:45:37.007Z,1.60
2022-08-27T12:46:36.886Z,1.90
2022-08-27T12:47:36.994Z,1.60
2022-08-27T12:48:36.808Z,2.10
2022-08-27T12:49:39.460Z,1.70
2022-08-27T12:50:36.785Z,1.60
2022-08-27T12:51:37.937Z,2.10
2022-08-27T12:52:36.879Z,2.10
2022-08-27T12:53:36.889Z,2.50
2022-08-27T12:54:36.741Z,2.30
2022-08-27T12:55:38.941Z,2.10
2022-08-27T12:56:36.708Z,2.60
2022-08-27T12:57:36.807Z,2.20
2022-08-27T12:58:36.679Z,2.00
2022-08-27T12:59:36.937Z,1.90
2022-08-27T13:00:36.740Z,2.00
2022-08-27T13:01:43.109Z,1.70
2022-08-27T13:02:37.675Z,1.70
2022-08-27T13:03:37.690Z,1.90
2022-08-27T13:04:36.608Z,1.90
2022-08-27T13:05:36.770Z,2.20
2022-08-27T13:06:36.593Z,2.30
2022-08-27T13:07:58.698Z,2.60
2022-08-27T13:08:36.627Z,1.80
2022-08-27T13:09:36.580Z,2.00
2022-08-27T13:10:36.581Z,1.70
2022-08-27T13:11:36.612Z,1.70
2022-08-27T13:12:36.511Z,1.60
2022-08-27T13:13:36.610Z,1.90
2022-08-27T13:14:36.472Z,2.30
2022-08-27T13:15:36.590Z,1.80
2022-08-27T13:16:39.673Z,1.70
2022-08-27T13:17:37.651Z,2.10
2022-08-27T13:18:36.431Z,1.60
2022-08-27T13:19:36.515Z,1.70
2022-08-27T13:20:36.414Z,1.80
2022-08-27T13:21:36.482Z,1.60
2022-08-27T13:22:36.415Z,1.50